Latest Coastal Weather Observations for Robe Airport

IDV60701

Issued at 11:31 pm EST Wednesday 28 September 2016 (issued every 10 minutes, with the page automatically refreshed every 10 minutes)

About coastal observations | Map of coastal stations | Coastal observations for VIC | Marine services | Other Formats
Station Details ID: 026105 Name: ROBE AIRFIELD Lat: -37.18 Lon: 139.81 Height: 3.0 m
Data from the previous 72 hours. | See also: Recent months at Robe Airport
Date/Time
EST
Temp
°C
Wind Pressure Rain since
9am
mm
Weather Cloud Vis
km
Sea
Height
m
Swell
Dir  Spd
kts
Gust
kts
hPa Trend Height
m
Period
s
Dir
28/11:30pm 10.7 WNW 15 22 985.4 - 20.6 - - - - - - -
28/11:00pm 11.4 WNW 13 24 985.6 - 20.2 - - - - - - -
28/10:30pm 11.8 N 11 16 985.5 - 20.2 - - - - - - -
28/10:00pm 12.0 NNE 9 12 986.1 - 20.2 - - - - - - -
28/09:30pm 11.8 ENE 7 11 986.6 - 20.2 Recent precip. - - - - - -
28/09:00pm 11.7 ENE 8 13 987.0 - 19.8 - - - - - - -
28/08:30pm 11.7 ENE 15 21 987.7 - 15.8 - - - - - - -
28/08:00pm 11.8 NE 17 23 988.1 - 11.8 - - - - - - -
28/07:30pm 11.9 NE 15 26 989.4 - 10.0 - - - - - - -
28/07:20pm 11.8 NE 15 27 989.4 - 9.8 - - - - - - -
28/07:00pm 11.6 NNE 8 13 990.2 - 9.0 - - - - - - -
28/06:36pm 11.9 NE 15 25 991.0 - 5.0 - - - - - - -
28/06:30pm 11.9 NE 19 26 990.3 - 4.2 Rain - - - - - -
28/06:13pm 11.8 NE 15 25 989.9 - 3.4 - - - - - - -
28/06:00pm 11.8 NE 19 27 990.4 - 2.6 - - - - - - -
28/05:30pm 12.1 NE 21 30 991.0 - 2.2 - - - - - - -
28/05:23pm 12.0 NE 20 30 990.9 - 2.2 - - - - - - -
28/05:00pm 12.3 NNE 20 28 991.6 - 2.0 - - - - - - -
28/04:34pm 12.6 NNE 19 35 992.4 - 2.0 - - - - - - -
28/04:30pm 12.6 NNE 18 25 992.7 - 2.0 - - - - - - -
28/04:20pm 12.7 NNE 19 29 993.1 - 2.0 - - - - - - -
28/04:00pm 13.6 N 20 30 994.0 - 0.4 - - - - - - -
28/03:30pm 15.6 NNE 19 32 994.5 - 0.0 - - - - - - -
28/03:29pm 15.9 NNE 18 32 994.6 - 0.0 - - - - - - -
28/03:00pm 16.5 NNE 18 24 995.0 - 0.0 - - - - - - -
28/02:30pm 16.9 NNE 17 23 996.2 - 0.0 - - - - - - -
28/02:00pm 16.6 NNE 16 23 997.0 - 0.0 - - - - - - -
28/01:30pm 16.7 NNE 17 23 997.7 - 0.0 - - - - - - -
28/01:10pm 16.9 NNE 16 26 998.5 - 0.0 - - - - - - -
28/01:00pm 16.9 NNE 16 20 998.8 - 0.0 - - - - - - -
28/12:30pm 16.8 NNE 16 22 999.1 - 0.0 - - - - - - -
28/12:00pm 16.7 NNE 16 23 1000.0 - 0.0 - - - - - - -
28/11:30am 17.6 NNE 16 24 1001.7 - 0.0 - - - - - - -
28/11:00am 16.5 NNE 17 23 1002.6 - 0.0 - - - - - - -
28/10:30am 15.8 NNE 17 25 1003.4 - 0.0 - - - - - - -
28/10:00am 14.7 NNE 17 26 1004.7 - 0.0 - - - - - - -
28/09:30am 14.5 NNE 15 21 1005.6 - 0.0 - - - - - - -
28/09:00am 13.5 NNE 13 16 1006.6 - 0.0 - - - - - - -
28/08:30am 11.9 NNE 11 17 1007.1 - 0.0 - - - - - - -
28/08:00am 10.1 NNE 9 12 1007.7 - 0.0 - - - - - - -
28/07:30am 8.3 NE 5 8 1008.3 - 0.0 - - - - - - -
28/07:00am 6.6 NE 5 6 1008.5 - 0.0 - - - - - - -
28/06:30am 6.5 NNE 5 6 1008.7 - 0.0 - - - - - - -
28/06:00am 7.1 NNE 6 9 1008.8 - 0.0 - - - - - - -
28/05:30am 7.5 NNE 7 9 1009.0 - 0.0 - - - - - - -
28/05:00am 7.6 NNE 6 7 1009.2 - 0.0 - - - - - - -
28/04:30am 8.0 NE 6 7 1009.2 - 0.0 - - - - - - -
28/04:00am 6.9 N 3 4 1009.4 - 0.0 - - - - - - -
28/03:30am 7.6 N 4 5 1009.9 - 0.0 - - - - - - -
28/03:00am 8.3 N 3 4 1010.1 - 0.0 - - - - - - -
28/02:30am 9.0 N 3 4 1010.4 - 0.0 - - - - - - -
28/02:00am 10.5 NNW 4 5 1010.7 - 0.0 - - - - - - -
28/01:30am 12.0 NNW 6 9 1011.0 - 0.0 - - - - - - -
28/01:00am 12.3 NW 8 10 1011.3 - 0.0 - - - - - - -
28/12:30am 12.7 NW 8 10 1011.5 - 0.0 - - - - - - -
28/12:00am 12.7 NNW 7 9 1011.7 - 0.0 - - - - - - -
 
Date/Time
EST
Temp
°C
Wind Pressure Rain since
9am
mm
Weather Cloud Vis
km
Sea
Height
m
Swell
Dir  Spd
kts
Gust
kts
hPa Trend Height
m
Period
s
Dir
27/11:30pm 12.9 NNW 7 10 1011.9 - 0.0 - - - - - - -
27/11:00pm 12.4 NNW 8 11 1012.0 - 0.0 - - - - - - -
27/10:30pm 12.8 NNW 9 13 1012.2 - 0.0 - - - - - - -
27/10:00pm 13.1 NNW 10 15 1012.2 - 0.0 - - - - - - -
27/09:30pm 13.2 NNW 10 14 1012.3 - 0.0 - - - - - - -
27/09:00pm 13.0 NNW 11 14 1012.2 - 0.0 - - - - - - -
27/08:30pm 12.7 N 8 11 1012.3 - 0.0 - - - - - - -
27/08:00pm 12.7 N 8 11 1012.3 - 0.0 - - - - - - -
27/07:30pm 12.7 NNW 8 11 1012.3 - 0.0 - - - - - - -
27/07:00pm 12.9 NNW 10 13 1012.4 - 0.0 - - - - - - -
27/06:30pm 12.9 NNW 11 15 1012.4 - 0.0 - - - - - - -
27/06:00pm 13.1 NW 10 13 1012.3 - 0.0 - - - - - - -
27/05:30pm 13.5 NW 11 16 1012.3 - 0.0 - - - - - - -
27/05:00pm 14.0 NW 12 15 1012.5 - 0.0 - - - - - - -
27/04:30pm 14.7 NW 12 16 1012.6 - 0.0 - - - - - - -
27/04:00pm 15.1 NW 12 17 1012.5 - 0.0 - - - - - - -
27/03:30pm 14.3 NW 12 17 1012.6 - 0.0 - - - - - - -
27/03:00pm 13.9 NW 13 17 1012.7 - 0.0 - - - - - - -
27/02:30pm 14.9 NW 14 18 1012.8 - 0.0 - - - - - - -
27/02:00pm 14.6 NW 13 19 1012.9 - 0.0 - - - - - - -
27/01:30pm 13.8 NW 13 20 1013.1 - 0.0 - - - - - - -
27/01:00pm 15.3 NW 15 20 1013.3 - 0.0 - - - - - - -
27/12:30pm 13.9 NW 12 15 1013.4 - 0.0 - - - - - - -
27/12:00pm 15.2 NW 13 18 1013.5 - 0.0 - - - - - - -
27/11:30am 15.4 NW 11 17 1013.6 - 0.0 - - - - - - -
27/11:00am 15.3 WNW 11 17 1013.8 - 0.0 - - - - - - -
27/10:30am 14.1 WNW 11 15 1014.0 - 0.0 - - - - - - -
27/10:00am 12.5 NW 6 9 1014.2 - 0.0 - - - - - - -
27/09:30am 13.5 NW 10 15 1014.1 - 3.4 - - - - - - -
27/09:00am 13.0 WNW 9 15 1013.8 - 3.4 - - - - - - -
27/08:30am 12.5 WNW 9 14 1013.6 - 3.4 - - - - - - -
27/08:00am 12.6 W 7 12 1013.1 - 3.4 - - - - - - -
27/07:30am 12.1 W 7 11 1012.9 - 3.4 - - - - - - -
27/07:00am 11.0 W 7 10 1012.7 - 3.4 - - - - - - -
27/06:30am 10.5 W 5 9 1012.5 - 3.4 - - - - - - -
27/06:00am 10.3 W 5 10 1012.3 - 3.4 - - - - - - -
27/05:30am 10.6 W 8 13 1012.0 - 3.4 - - - - - - -
27/05:00am 10.8 WSW 8 14 1011.7 - 3.4 - - - - - - -
27/04:30am 10.9 W 7 11 1011.6 - 3.4 - - - - - - -
27/04:00am 10.7 WSW 9 15 1011.7 - 3.4 - - - - - - -
27/03:30am 10.5 WSW 9 16 1011.8 - 3.4 - - - - - - -
27/03:00am 10.7 WSW 9 16 1011.8 - 3.4 - - - - - - -
27/02:30am 10.9 WSW 8 14 1011.9 - 3.4 - - - - - - -
27/02:00am 10.8 WSW 9 16 1011.9 - 3.4 - - - - - - -
27/01:30am 11.0 WSW 9 16 1012.1 - 3.4 - - - - - - -
27/01:00am 10.9 WSW 10 17 1011.8 - 3.4 - - - - - - -
27/12:30am 11.2 WSW 10 18 1011.5 - 3.4 - - - - - - -
27/12:00am 11.1 WSW 8 16 1011.4 - 3.4 - - - - - - -
 
Date/Time
EST
Temp
°C
Wind Pressure Rain since
9am
mm
Weather Cloud Vis
km
Sea
Height
m
Swell
Dir  Spd
kts
Gust
kts
hPa Trend Height
m
Period
s
Dir
26/11:30pm 10.3 WSW 10 20 1011.6 - 3.4 - - - - - - -
26/11:00pm 10.9 WSW 10 17 1011.5 - 3.4 - - - - - - -
26/10:30pm 11.6 W 9 13 1011.4 - 3.4 - - - - - - -
26/10:00pm 11.0 W 8 13 1011.3 - 3.4 - - - - - - -
26/09:30pm 11.0 WSW 8 14 1011.2 - 3.4 - - - - - - -
26/09:00pm 11.0 WSW 8 13 1011.2 - 3.4 - - - - - - -
26/08:30pm 10.7 WSW 8 13 1010.9 - 3.4 - - - - - - -
26/08:00pm 10.7 W 10 17 1010.5 - 3.4 - - - - - - -
26/07:30pm 10.3 W 10 17 1010.2 - 3.4 - - - - - - -
26/07:00pm 10.3 WSW 9 15 1009.9 - 3.2 - - - - - - -
26/06:30pm 10.3 W 8 15 1009.6 - 3.2 - - - - - - -
26/06:00pm 10.3 WNW 8 13 1009.3 - 3.2 - - - - - - -
26/05:30pm 11.4 W 9 16 1008.8 - 3.2 - - - - - - -
26/05:00pm 11.0 W 8 15 1008.6 - 3.2 - - - - - - -
26/04:30pm 10.9 WNW 11 17 1008.8 - 3.2 - - - - - - -
26/04:00pm 10.0 NW 15 23 1008.6 - 3.2 - - - - - - -
26/03:30pm 11.7 WNW 11 19 1008.7 - 3.0 - - - - - - -
26/03:00pm 12.2 W 12 18 1008.6 - 3.0 - - - - - - -
26/02:30pm 13.9 WNW 14 21 1008.6 - 3.0 - - - - - - -
26/02:00pm 13.1 WNW 12 17 1008.7 - 3.0 - - - - - - -
26/01:30pm 12.7 WNW 12 18 1009.1 - 3.0 - - - - - - -
26/01:00pm 12.1 NW 14 21 1009.5 - 3.0 - - - - - - -
26/12:30pm 10.7 NW 13 18 1009.3 - 2.8 Recent precip. - - - - - -
26/12:00pm 10.4 WNW 14 18 1009.6 - 2.6 - - - - - - -
26/11:30am 10.3 WNW 16 28 1010.0 - 2.4 - - - - - - -
26/11:22am 10.4 WNW 19 30 1010.2 - 1.6 - - - - - - -
26/11:11am 12.4 NNW 18 28 1010.3 - 0.0 - - - - - - -
26/11:00am 13.1 NNW 16 22 1009.7 - 0.0 - - - - - - -
26/10:30am 13.7 N 15 20 1009.6 - 0.0 - - - - - - -
26/10:00am 13.9 N 14 19 1010.0 - 0.0 - - - - - - -
26/09:30am 13.7 N 12 18 1010.2 - 0.0 - - - - - - -
26/09:00am 12.4 N 9 13 1010.2 - 0.0 - - - - - - -
26/08:30am 11.8 N 11 15 1010.5 - 0.0 - - - - - - -
26/08:00am 11.0 N 10 13 1010.7 - 0.0 - - - - - - -
26/07:30am 9.4 NNE 7 8 1010.8 - 0.0 - - - - - - -
26/07:00am 7.6 NNE 6 7 1011.0 - 0.0 - - - - - - -
26/06:30am 7.0 N 5 6 1011.0 - 0.0 - - - - - - -
26/06:00am 7.2 NNE 5 6 1010.4 - 0.0 - - - - - - -
26/05:30am 7.8 NNE 4 5 1010.5 - 0.0 - - - - - - -
26/05:00am 9.7 N 6 8 1010.6 - 0.0 - - - - - - -
26/04:30am 11.7 NNW 9 13 1010.8 - 0.0 - - - - - - -
26/04:00am 11.0 NW 10 14 1011.1 - 0.0 - - - - - - -
26/03:30am 8.9 N 6 9 1011.5 - 0.0 - - - - - - -
26/03:00am 9.6 N 6 10 1011.9 - 0.0 - - - - - - -
26/02:30am 11.3 NW 9 14 1012.2 - 0.0 - - - - - - -
26/02:00am 9.6 NNW 5 9 1012.5 - 0.0 - - - - - - -
26/01:30am 9.8 NNW 6 7 1012.9 - 0.0 - - - - - - -
26/01:00am 10.9 NW 13 24 1013.3 - 0.0 - - - - - - -
26/12:30am 11.5 NNW 10 14 1013.3 - 0.0 - - - - - - -

Other Formats:

Comma delimited format used in spreadsheet applications
http://www.bom.gov.au/fwo/IDV60701/IDV60701.95816.axf

JavaScript Object Notation format (JSON) in row-major order
http://www.bom.gov.au/fwo/IDV60701/IDV60701.95816.json